createdAt,value
2023-05-06T00:00:23.880Z,3881.00
2023-05-06T00:01:23.831Z,3865.00
2023-05-06T00:02:23.904Z,3883.00
2023-05-06T00:03:24.032Z,3874.00
2023-05-06T00:04:23.942Z,3857.00
2023-05-06T00:05:23.810Z,3870.00
2023-05-06T00:06:23.864Z,3882.00
2023-05-06T00:07:23.851Z,3869.00
2023-05-06T00:08:23.831Z,3878.00
2023-05-06T00:09:23.832Z,3886.00
2023-05-06T00:10:23.849Z,3832.00
2023-05-06T00:11:23.853Z,3787.00
2023-05-06T00:12:23.866Z,3799.00
2023-05-06T00:13:23.832Z,3803.00
2023-05-06T00:14:23.811Z,3825.00
2023-05-06T00:15:23.881Z,3867.00
2023-05-06T00:16:23.916Z,3871.00
2023-05-06T00:17:23.835Z,3903.00
2023-05-06T00:18:23.814Z,3896.00
2023-05-06T00:19:23.795Z,3910.00
2023-05-06T00:20:23.797Z,3913.00
2023-05-06T00:21:23.790Z,3917.00
2023-05-06T00:22:23.797Z,3904.00
2023-05-06T00:23:23.774Z,3918.00
2023-05-06T00:24:23.840Z,3908.00
2023-05-06T00:25:23.739Z,3912.00
2023-05-06T00:26:23.737Z,3905.00
2023-05-06T00:27:23.768Z,3900.00
2023-05-06T00:28:23.720Z,3893.00
2023-05-06T00:29:23.708Z,3909.00
2023-05-06T00:30:23.721Z,3897.00
2023-05-06T00:31:23.748Z,3900.00
2023-05-06T00:32:23.704Z,3896.00
2023-05-06T00:33:23.661Z,3895.00
2023-05-06T00:34:23.683Z,3906.00
2023-05-06T00:35:23.670Z,3919.00
2023-05-06T00:36:23.657Z,3932.00
2023-05-06T00:37:23.632Z,3942.00
2023-05-06T00:38:23.603Z,3934.00
2023-05-06T00:39:23.629Z,3937.00
2023-05-06T00:40:23.760Z,3941.00
2023-05-06T00:41:23.630Z,3949.00
2023-05-06T00:42:23.582Z,3969.00
2023-05-06T00:43:23.582Z,3975.00
2023-05-06T00:44:23.557Z,3983.00
2023-05-06T00:45:23.526Z,3984.00
2023-05-06T00:46:23.626Z,3989.00
2023-05-06T00:47:23.531Z,3980.00
2023-05-06T00:48:23.546Z,3976.00
2023-05-06T00:49:23.505Z,3976.00
2023-05-06T00:50:23.515Z,3912.00
2023-05-06T00:51:23.526Z,3860.00
2023-05-06T00:52:23.519Z,3811.00
2023-05-06T00:53:23.490Z,3725.00
2023-05-06T00:54:23.484Z,3687.00
2023-05-06T00:55:23.499Z,3691.00
2023-05-06T00:56:23.548Z,3742.00
2023-05-06T00:57:23.515Z,3762.00
2023-05-06T00:58:23.517Z,3717.00
2023-05-06T00:59:23.493Z,3659.00
2023-05-06T01:00:23.469Z,3593.00
2023-05-06T01:01:23.529Z,3549.00
2023-05-06T01:02:26.251Z,3542.00
2023-05-06T01:03:23.570Z,3543.00
2023-05-06T01:04:23.430Z,3546.00
2023-05-06T01:05:23.431Z,3552.00
2023-05-06T01:06:23.392Z,3574.00
2023-05-06T01:07:23.387Z,3625.00
2023-05-06T01:08:23.323Z,3651.00
2023-05-06T01:09:23.341Z,3620.00
2023-05-06T01:10:23.310Z,3564.00
2023-05-06T01:11:23.304Z,3545.00
2023-05-06T01:12:23.330Z,3531.00
2023-05-06T01:13:23.324Z,3496.00
2023-05-06T01:14:23.211Z,3490.00
2023-05-06T01:15:23.213Z,3453.00
2023-05-06T01:16:23.246Z,3463.00
2023-05-06T01:17:23.177Z,3450.00
2023-05-06T01:18:23.149Z,3491.00
2023-05-06T01:19:23.139Z,3456.00
2023-05-06T01:20:23.118Z,3409.00
2023-05-06T01:21:23.078Z,3397.00
2023-05-06T01:22:23.071Z,3358.00
2023-05-06T01:23:23.029Z,3312.00
2023-05-06T01:24:22.996Z,3224.00
2023-05-06T01:25:22.967Z,3161.00
2023-05-06T01:26:22.934Z,3138.00
2023-05-06T01:27:22.953Z,3124.00
2023-05-06T01:28:23.061Z,3189.00
2023-05-06T01:29:22.967Z,3298.00
2023-05-06T01:30:22.998Z,3368.00
2023-05-06T01:31:23.049Z,3423.00
2023-05-06T01:32:22.992Z,3445.00
2023-05-06T01:33:22.979Z,3465.00
2023-05-06T01:34:23.008Z,3491.00
2023-05-06T01:35:23.008Z,3511.00
2023-05-06T01:36:23.024Z,3534.00
2023-05-06T01:37:23.041Z,3563.00
2023-05-06T01:38:23.027Z,3572.00
2023-05-06T01:39:23.036Z,3583.00
2023-05-06T01:40:23.031Z,3598.00
2023-05-06T01:41:23.019Z,3618.00
2023-05-06T01:42:23.009Z,3633.00
2023-05-06T01:43:23.031Z,3643.00
2023-05-06T01:44:23.079Z,3683.00
2023-05-06T01:45:23.007Z,3678.00
2023-05-06T01:46:23.121Z,3677.00
2023-05-06T01:47:23.003Z,3689.00
2023-05-06T01:48:22.979Z,3716.00
2023-05-06T01:49:23.007Z,3716.00
2023-05-06T01:50:22.970Z,3720.00
2023-05-06T01:51:22.981Z,3721.00
2023-05-06T01:52:22.974Z,3732.00
2023-05-06T01:53:22.980Z,3736.00
2023-05-06T01:54:22.970Z,3758.00
2023-05-06T01:55:22.989Z,3758.00
2023-05-06T01:56:22.984Z,3748.00
2023-05-06T01:57:22.974Z,3759.00
2023-05-06T01:58:22.996Z,3767.00
2023-05-06T01:59:22.950Z,3777.00
2023-05-06T02:00:23.029Z,3782.00
2023-05-06T02:01:23.067Z,3795.00
2023-05-06T02:02:22.982Z,3795.00
2023-05-06T02:03:23.045Z,3794.00
2023-05-06T02:04:22.966Z,3794.00
2023-05-06T02:05:22.964Z,3788.00
2023-05-06T02:06:22.982Z,3791.00
2023-05-06T02:07:22.957Z,3780.00
2023-05-06T02:08:22.910Z,3792.00
2023-05-06T02:09:22.931Z,3806.00
2023-05-06T02:10:22.880Z,3803.00
2023-05-06T02:11:22.939Z,3810.00
2023-05-06T02:12:22.951Z,3820.00
2023-05-06T02:13:23.018Z,3830.00
2023-05-06T02:14:22.896Z,3815.00
2023-05-06T02:15:22.882Z,3805.00
2023-05-06T02:16:22.934Z,3810.00
2023-05-06T02:17:22.911Z,3808.00
2023-05-06T02:18:22.894Z,3793.00
2023-05-06T02:19:22.866Z,3805.00
2023-05-06T02:20:22.815Z,3789.00
2023-05-06T02:21:22.827Z,3793.00
2023-05-06T02:22:22.822Z,3792.00
2023-05-06T02:23:22.793Z,3782.00
2023-05-06T02:24:22.796Z,3798.00
2023-05-06T02:25:22.786Z,3801.00
2023-05-06T02:26:22.795Z,3792.00
2023-05-06T02:27:22.807Z,3795.00
2023-05-06T02:28:22.781Z,3795.00
2023-05-06T02:29:22.782Z,3800.00
2023-05-06T02:30:22.765Z,3783.00
2023-05-06T02:31:22.846Z,3779.00
2023-05-06T02:32:22.890Z,3768.00
2023-05-06T02:33:22.778Z,3752.00
2023-05-06T02:34:22.735Z,3746.00
2023-05-06T02:35:22.801Z,3763.00
2023-05-06T02:36:22.786Z,3756.00
2023-05-06T02:37:22.742Z,3754.00
2023-05-06T02:38:22.741Z,3690.00
2023-05-06T02:39:22.717Z,3607.00
2023-05-06T02:40:22.750Z,3532.00
2023-05-06T02:41:22.741Z,3525.00
2023-05-06T02:42:23.593Z,3507.00
2023-05-06T02:43:22.729Z,3466.00
2023-05-06T02:44:22.752Z,3466.00
2023-05-06T02:45:22.746Z,3473.00
2023-05-06T02:46:22.787Z,3524.00
2023-05-06T02:47:22.813Z,3621.00
2023-05-06T02:48:23.021Z,3643.00
2023-05-06T02:49:22.747Z,3640.00
2023-05-06T02:50:22.719Z,3626.00
2023-05-06T02:51:22.749Z,3599.00
2023-05-06T02:52:22.747Z,3546.00
2023-05-06T02:53:22.749Z,3515.00
2023-05-06T02:54:22.743Z,3496.00
2023-05-06T02:55:22.776Z,3513.00
2023-05-06T02:56:22.780Z,3508.00
2023-05-06T02:57:22.743Z,3466.00
2023-05-06T02:58:22.739Z,3429.00
2023-05-06T02:59:22.729Z,3412.00
2023-05-06T03:00:22.789Z,3398.00
2023-05-06T03:01:22.872Z,3402.00
2023-05-06T03:02:22.812Z,3401.00
2023-05-06T03:03:22.831Z,3380.00
2023-05-06T03:04:22.984Z,3398.00
2023-05-06T03:05:22.895Z,3357.00
2023-05-06T03:06:22.872Z,3339.00
2023-05-06T03:07:22.898Z,3311.00
2023-05-06T03:08:22.891Z,3270.00
2023-05-06T03:09:22.892Z,3276.00
2023-05-06T03:10:22.935Z,3268.00
2023-05-06T03:11:22.954Z,3268.00
2023-05-06T03:12:22.959Z,3273.00
2023-05-06T03:13:23.034Z,3306.00
2023-05-06T03:14:22.981Z,3317.00
2023-05-06T03:15:22.996Z,3328.00
2023-05-06T03:16:23.043Z,3345.00
2023-05-06T03:17:23.041Z,3361.00
2023-05-06T03:18:23.056Z,3337.00
2023-05-06T03:19:23.092Z,3330.00
2023-05-06T03:20:23.121Z,3319.00
2023-05-06T03:21:23.163Z,3329.00
2023-05-06T03:22:23.114Z,3363.00
2023-05-06T03:23:23.160Z,3363.00
2023-05-06T03:24:23.179Z,3329.00
2023-05-06T03:25:23.172Z,3343.00
2023-05-06T03:26:23.215Z,3375.00
2023-05-06T03:27:23.175Z,3392.00
2023-05-06T03:28:23.209Z,3409.00
2023-05-06T03:29:23.238Z,3442.00
2023-05-06T03:30:23.216Z,3478.00
2023-05-06T03:31:23.361Z,3507.00
2023-05-06T03:32:23.290Z,3491.00
2023-05-06T03:33:23.270Z,3478.00
2023-05-06T03:34:23.277Z,3443.00
2023-05-06T03:35:23.280Z,3368.00
2023-05-06T03:36:23.459Z,3322.00
2023-05-06T03:37:23.280Z,3298.00
2023-05-06T03:38:23.283Z,3328.00
2023-05-06T03:39:23.293Z,3382.00
2023-05-06T03:40:23.294Z,3417.00
2023-05-06T03:41:23.310Z,3426.00
2023-05-06T03:42:23.255Z,3437.00
2023-05-06T03:43:23.324Z,3365.00
2023-05-06T03:44:23.300Z,3301.00
2023-05-06T03:45:23.287Z,3242.00
2023-05-06T03:46:23.330Z,3248.00
2023-05-06T03:47:23.374Z,3294.00
2023-05-06T03:48:23.301Z,3287.00
2023-05-06T03:49:23.295Z,3245.00
2023-05-06T03:50:23.302Z,3222.00
2023-05-06T03:51:23.317Z,3224.00
2023-05-06T03:52:23.420Z,3210.00
2023-05-06T03:53:24.077Z,3188.00
2023-05-06T03:54:23.324Z,3166.00
2023-05-06T03:55:23.306Z,3154.00
2023-05-06T03:56:23.303Z,3145.00
2023-05-06T03:57:23.356Z,3145.00
2023-05-06T03:58:23.364Z,3140.00
2023-05-06T03:59:23.324Z,3200.00
2023-05-06T04:00:23.334Z,3239.00
2023-05-06T04:01:23.343Z,3245.00
2023-05-06T04:02:23.444Z,3209.00
2023-05-06T04:03:23.419Z,3115.00
2023-05-06T04:04:23.325Z,3036.00
2023-05-06T04:05:23.346Z,2993.00
2023-05-06T04:06:23.308Z,2973.00
2023-05-06T04:07:23.315Z,2973.00
2023-05-06T04:08:23.377Z,2925.00
2023-05-06T04:09:23.329Z,2927.00
2023-05-06T04:10:23.341Z,2878.00
2023-05-06T04:11:23.362Z,2848.00
2023-05-06T04:12:23.355Z,2838.00
2023-05-06T04:13:23.358Z,2841.00
2023-05-06T04:14:23.400Z,2845.00
2023-05-06T04:15:23.416Z,2854.00
2023-05-06T04:16:23.455Z,2859.00
2023-05-06T04:17:23.425Z,2872.00
2023-05-06T04:18:23.407Z,2884.00
2023-05-06T04:19:23.447Z,2884.00
2023-05-06T04:20:23.458Z,2904.00
2023-05-06T04:21:23.481Z,2925.00
2023-05-06T04:22:23.505Z,2937.00
2023-05-06T04:23:23.560Z,2945.00
2023-05-06T04:24:23.747Z,2955.00
2023-05-06T04:25:23.597Z,2993.00
2023-05-06T04:26:23.658Z,2986.00
2023-05-06T04:27:23.668Z,2988.00
2023-05-06T04:28:23.747Z,2971.00
2023-05-06T04:29:23.754Z,2971.00
2023-05-06T04:30:23.808Z,2995.00
2023-05-06T04:31:23.844Z,3028.00
2023-05-06T04:32:23.858Z,3032.00
2023-05-06T04:33:23.888Z,3063.00
2023-05-06T04:34:23.907Z,3071.00
2023-05-06T04:35:23.975Z,3053.00
2023-05-06T04:36:23.955Z,3056.00
2023-05-06T04:37:23.968Z,3038.00
2023-05-06T04:38:24.009Z,3026.00
2023-05-06T04:39:24.065Z,3007.00
2023-05-06T04:40:24.104Z,2999.00
2023-05-06T04:41:24.106Z,2992.00
2023-05-06T04:42:24.134Z,2994.00
2023-05-06T04:43:24.144Z,2998.00
2023-05-06T04:44:24.194Z,2970.00
2023-05-06T04:45:24.253Z,2983.00
2023-05-06T04:46:24.257Z,3047.00
2023-05-06T04:47:24.308Z,3139.00
2023-05-06T04:48:24.334Z,3169.00
2023-05-06T04:49:24.325Z,3176.00
2023-05-06T04:50:24.353Z,3149.00
2023-05-06T04:51:24.389Z,3129.00
2023-05-06T04:52:24.407Z,3137.00
2023-05-06T04:53:25.117Z,3177.00
2023-05-06T04:54:24.444Z,3207.00
2023-05-06T04:55:24.482Z,3233.00
2023-05-06T04:56:24.516Z,3270.00
2023-05-06T04:57:24.526Z,3270.00
2023-05-06T04:58:24.547Z,3267.00
2023-05-06T04:59:24.526Z,3257.00
2023-05-06T05:00:24.568Z,3279.00
2023-05-06T05:01:24.643Z,3291.00
2023-05-06T05:02:24.733Z,3289.00
2023-05-06T05:03:24.689Z,3307.00
2023-05-06T05:04:24.662Z,3314.00
2023-05-06T05:05:24.671Z,3283.00
2023-05-06T05:06:24.679Z,3239.00
2023-05-06T05:07:24.674Z,3199.00
2023-05-06T05:08:24.710Z,3186.00
2023-05-06T05:09:24.728Z,3191.00
2023-05-06T05:10:24.751Z,3205.00
2023-05-06T05:11:24.751Z,3234.00
2023-05-06T05:12:24.831Z,3220.00
2023-05-06T05:13:24.778Z,3203.00
2023-05-06T05:14:24.806Z,3208.00
2023-05-06T05:15:24.824Z,3246.00
2023-05-06T05:16:24.880Z,3259.00
2023-05-06T05:17:24.833Z,3230.00
2023-05-06T05:18:24.831Z,3169.00
2023-05-06T05:19:24.853Z,3127.00
2023-05-06T05:20:24.884Z,3127.00
2023-05-06T05:21:24.877Z,3123.00
2023-05-06T05:22:24.910Z,3101.00
2023-05-06T05:23:24.902Z,3087.00
2023-05-06T05:24:24.949Z,3061.00
2023-05-06T05:25:24.942Z,3037.00
2023-05-06T05:26:24.991Z,3010.00
2023-05-06T05:27:24.999Z,2991.00
2023-05-06T05:28:25.022Z,2915.00
2023-05-06T05:29:25.058Z,2890.00
2023-05-06T05:30:25.101Z,2850.00
2023-05-06T05:31:25.154Z,2829.00
2023-05-06T05:32:25.164Z,2834.00
2023-05-06T05:33:25.185Z,2844.00
2023-05-06T05:34:25.201Z,2811.00
2023-05-06T05:35:25.209Z,2745.00
2023-05-06T05:36:25.222Z,2703.00
2023-05-06T05:37:25.280Z,2726.00
2023-05-06T05:38:25.327Z,2702.00
2023-05-06T05:39:25.345Z,2717.00
2023-05-06T05:40:25.354Z,2730.00
2023-05-06T05:41:25.369Z,2690.00
2023-05-06T05:42:25.422Z,2687.00
2023-05-06T05:43:25.443Z,2671.00
2023-05-06T05:44:25.533Z,2695.00
2023-05-06T05:45:25.484Z,2754.00
2023-05-06T05:46:25.582Z,2793.00
2023-05-06T05:47:25.571Z,2814.00
2023-05-06T05:48:25.553Z,2805.00
2023-05-06T05:49:25.605Z,2790.00
2023-05-06T05:50:25.616Z,2826.00
2023-05-06T05:51:25.595Z,2862.00
2023-05-06T05:52:25.625Z,2891.00
2023-05-06T05:53:25.662Z,2897.00
2023-05-06T05:54:25.657Z,2927.00
2023-05-06T05:55:25.674Z,2897.00
2023-05-06T05:56:25.714Z,2880.00
2023-05-06T05:57:25.700Z,2904.00
2023-05-06T05:58:25.729Z,2932.00
2023-05-06T05:59:25.716Z,2955.00
2023-05-06T06:00:25.786Z,2959.00
2023-05-06T06:01:25.744Z,2969.00
2023-05-06T06:02:25.813Z,2952.00
2023-05-06T06:03:25.923Z,2966.00
2023-05-06T06:04:25.842Z,2990.00
2023-05-06T06:05:25.769Z,2991.00
2023-05-06T06:06:25.725Z,3001.00
2023-05-06T06:07:25.756Z,3006.00
2023-05-06T06:08:25.722Z,3011.00
2023-05-06T06:09:25.712Z,3005.00
2023-05-06T06:10:25.722Z,3008.00
2023-05-06T06:11:25.769Z,2952.00
2023-05-06T06:12:25.761Z,2919.00
2023-05-06T06:13:27.903Z,2947.00
2023-05-06T06:14:25.697Z,2968.00
2023-05-06T06:15:25.697Z,2990.00
2023-05-06T06:16:25.681Z,3000.00
2023-05-06T06:17:25.626Z,2961.00
2023-05-06T06:18:25.570Z,2899.00
2023-05-06T06:19:25.561Z,2849.00
2023-05-06T06:20:25.493Z,2837.00
2023-05-06T06:21:25.508Z,2821.00
2023-05-06T06:22:25.470Z,2805.00
2023-05-06T06:23:25.425Z,2826.00
2023-05-06T06:24:25.412Z,2833.00
2023-05-06T06:25:25.365Z,2826.00
2023-05-06T06:26:25.358Z,2845.00
2023-05-06T06:27:25.347Z,2868.00
2023-05-06T06:28:25.314Z,2894.00
2023-05-06T06:29:25.281Z,2909.00
2023-05-06T06:30:25.282Z,2929.00
2023-05-06T06:31:25.320Z,2978.00
2023-05-06T06:32:25.289Z,3004.00
2023-05-06T06:33:25.200Z,3043.00
2023-05-06T06:34:25.151Z,3038.00
2023-05-06T06:35:25.164Z,2969.00
2023-05-06T06:36:25.164Z,2893.00
2023-05-06T06:37:25.100Z,2847.00
2023-05-06T06:38:25.085Z,2847.00
2023-05-06T06:39:25.078Z,2830.00
2023-05-06T06:40:25.013Z,2815.00
2023-05-06T06:41:24.998Z,2796.00
2023-05-06T06:42:25.265Z,2776.00
2023-05-06T06:43:24.985Z,2720.00
2023-05-06T06:44:24.931Z,2721.00
2023-05-06T06:45:24.927Z,2689.00
2023-05-06T06:46:24.917Z,2675.00
2023-05-06T06:47:24.908Z,2675.00
2023-05-06T06:48:24.908Z,2677.00
2023-05-06T06:49:24.842Z,2701.00
2023-05-06T06:50:24.823Z,2703.00
2023-05-06T06:51:24.764Z,2699.00
2023-05-06T06:52:24.783Z,2649.00
2023-05-06T06:53:24.749Z,2681.00
2023-05-06T06:54:24.733Z,2674.00
2023-05-06T06:55:24.705Z,2688.00
2023-05-06T06:56:24.655Z,2637.00
2023-05-06T06:57:24.624Z,2583.00
2023-05-06T06:58:24.604Z,2584.00
2023-05-06T06:59:24.583Z,2536.00
2023-05-06T07:00:24.595Z,2525.00
2023-05-06T07:01:24.523Z,2486.00
2023-05-06T07:02:24.588Z,2466.00
2023-05-06T07:03:24.501Z,2405.00
2023-05-06T07:04:24.509Z,2362.00
2023-05-06T07:05:24.475Z,2286.00
2023-05-06T07:06:24.450Z,2245.00
2023-05-06T07:07:24.435Z,2205.00
2023-05-06T07:08:24.400Z,2180.00
2023-05-06T07:09:24.377Z,2147.00
2023-05-06T07:10:24.400Z,2129.00
2023-05-06T07:11:24.341Z,2130.00
2023-05-06T07:12:24.331Z,2107.00
2023-05-06T07:13:24.427Z,2069.00
2023-05-06T07:14:24.271Z,2021.00
2023-05-06T07:15:24.251Z,1983.00
2023-05-06T07:16:24.276Z,1985.00
2023-05-06T07:17:24.263Z,2006.00
2023-05-06T07:18:24.245Z,2030.00
2023-05-06T07:19:24.176Z,2034.00
2023-05-06T07:20:24.258Z,2014.00
2023-05-06T07:21:24.088Z,2046.00
2023-05-06T07:22:24.077Z,2035.00
2023-05-06T07:23:24.044Z,2049.00
2023-05-06T07:24:24.068Z,2020.00
2023-05-06T07:25:24.072Z,1975.00
2023-05-06T07:26:24.074Z,1976.00
2023-05-06T07:27:24.143Z,1995.00
2023-05-06T07:28:24.121Z,1993.00
2023-05-06T07:29:24.138Z,2010.00
2023-05-06T07:30:24.203Z,1975.00
2023-05-06T07:31:24.190Z,1932.00
2023-05-06T07:32:24.224Z,1908.00
2023-05-06T07:33:24.207Z,1927.00
2023-05-06T07:34:24.225Z,1928.00
2023-05-06T07:35:24.225Z,1898.00
2023-05-06T07:36:24.342Z,1913.00
2023-05-06T07:37:24.259Z,1878.00
2023-05-06T07:38:24.254Z,1890.00
2023-05-06T07:39:24.280Z,1872.00
2023-05-06T07:40:24.302Z,1888.00
2023-05-06T07:41:24.335Z,1883.00
2023-05-06T07:42:24.311Z,1887.00
2023-05-06T07:43:24.334Z,1859.00
2023-05-06T07:44:24.319Z,1852.00
2023-05-06T07:45:24.368Z,1818.00
2023-05-06T07:46:24.428Z,1841.00
2023-05-06T07:47:24.439Z,1840.00
2023-05-06T07:48:24.459Z,1896.00
2023-05-06T07:49:24.368Z,1971.00
2023-05-06T07:50:24.367Z,2055.00
2023-05-06T07:51:24.344Z,2107.00
2023-05-06T07:52:24.378Z,2086.00
2023-05-06T07:53:24.355Z,2099.00
2023-05-06T07:54:24.377Z,2136.00
2023-05-06T07:55:24.346Z,2165.00
2023-05-06T07:56:24.361Z,2213.00
2023-05-06T07:57:24.351Z,2206.00
2023-05-06T07:58:24.313Z,2174.00
2023-05-06T07:59:24.310Z,2195.00
2023-05-06T08:00:24.341Z,2245.00
2023-05-06T08:01:24.318Z,2278.00
2023-05-06T08:02:24.318Z,2306.00
2023-05-06T08:03:24.397Z,2328.00
2023-05-06T08:04:24.274Z,2356.00
2023-05-06T08:05:24.247Z,2346.00
2023-05-06T08:06:24.203Z,2332.00
2023-05-06T08:07:24.182Z,2272.00
2023-05-06T08:08:24.256Z,2250.00
2023-05-06T08:09:24.166Z,2252.00
2023-05-06T08:10:24.148Z,2256.00
2023-05-06T08:11:24.129Z,2298.00
2023-05-06T08:12:24.169Z,2341.00
2023-05-06T08:13:24.118Z,2412.00
2023-05-06T08:14:24.071Z,2464.00
2023-05-06T08:15:24.071Z,2477.00
2023-05-06T08:16:25.463Z,2489.00
2023-05-06T08:17:24.061Z,2508.00
2023-05-06T08:18:24.121Z,2520.00
2023-05-06T08:19:23.984Z,2544.00
2023-05-06T08:20:23.997Z,2549.00
2023-05-06T08:21:23.945Z,2565.00
2023-05-06T08:22:23.933Z,2568.00
2023-05-06T08:23:23.907Z,2579.00
2023-05-06T08:24:24.017Z,2592.00
2023-05-06T08:25:23.886Z,2601.00
2023-05-06T08:26:23.853Z,2600.00
2023-05-06T08:27:23.889Z,2633.00
2023-05-06T08:28:25.306Z,2596.00
2023-05-06T08:29:23.830Z,2371.00
2023-05-06T08:30:23.800Z,2215.00
2023-05-06T08:31:23.800Z,2076.00
2023-05-06T08:32:23.878Z,2112.00
2023-05-06T08:33:23.735Z,2008.00
2023-05-06T08:34:23.749Z,1942.00
2023-05-06T08:35:23.742Z,1822.00
2023-05-06T08:36:23.704Z,1805.00
2023-05-06T08:37:23.723Z,1773.00
2023-05-06T08:38:23.732Z,1761.00
2023-05-06T08:39:23.712Z,1759.00
2023-05-06T08:40:23.690Z,1799.00
2023-05-06T08:41:23.685Z,1798.00
2023-05-06T08:42:23.750Z,1728.00
2023-05-06T08:43:23.670Z,1670.00
2023-05-06T08:44:23.621Z,1678.00
2023-05-06T08:45:23.688Z,1677.00
2023-05-06T08:46:23.621Z,1635.00
2023-05-06T08:47:23.600Z,1622.00
2023-05-06T08:48:23.645Z,1552.00
2023-05-06T08:49:23.587Z,1518.00
2023-05-06T08:50:23.617Z,1457.00
2023-05-06T08:51:25.436Z,1428.00
2023-05-06T08:52:23.712Z,1376.00
2023-05-06T08:53:23.605Z,1327.00
2023-05-06T08:54:23.564Z,1315.00
2023-05-06T08:55:23.583Z,1313.00
2023-05-06T08:56:23.636Z,1359.00
2023-05-06T08:57:23.574Z,1346.00
2023-05-06T08:58:23.557Z,1339.00
2023-05-06T08:59:23.547Z,1385.00
2023-05-06T09:00:23.549Z,1382.00
2023-05-06T09:01:23.597Z,1398.00
2023-05-06T09:02:23.656Z,1363.00
2023-05-06T09:03:23.768Z,1354.00
2023-05-06T09:04:23.555Z,1303.00
2023-05-06T09:05:23.565Z,1273.00
2023-05-06T09:06:23.552Z,1295.00
2023-05-06T09:07:23.553Z,1236.00
2023-05-06T09:08:23.544Z,1180.00
2023-05-06T09:09:23.566Z,1197.00
2023-05-06T09:10:23.563Z,1192.00
2023-05-06T09:11:23.585Z,1174.00
2023-05-06T09:12:23.667Z,1204.00
2023-05-06T09:13:23.562Z,1242.00
2023-05-06T09:14:23.589Z,1279.00
2023-05-06T09:15:23.591Z,1325.00
2023-05-06T09:16:23.649Z,1308.00
2023-05-06T09:17:23.742Z,1350.00
2023-05-06T09:18:23.610Z,1355.00
2023-05-06T09:19:23.607Z,1345.00
2023-05-06T09:20:23.610Z,1327.00
2023-05-06T09:21:23.623Z,1325.00
2023-05-06T09:22:23.648Z,1339.00
2023-05-06T09:23:23.655Z,1339.00
2023-05-06T09:24:23.640Z,1313.00
2023-05-06T09:25:23.627Z,1275.00
2023-05-06T09:26:23.643Z,1303.00
2023-05-06T09:27:23.687Z,1364.00
2023-05-06T09:28:23.709Z,1392.00
2023-05-06T09:29:23.716Z,1330.00
2023-05-06T09:30:23.699Z,1299.00
2023-05-06T09:31:23.765Z,1316.00
2023-05-06T09:32:23.775Z,1351.00
2023-05-06T09:33:23.781Z,1402.00
2023-05-06T09:34:23.781Z,1419.00
2023-05-06T09:35:23.793Z,1408.00
2023-05-06T09:36:23.814Z,1376.00
2023-05-06T09:37:23.837Z,1383.00
2023-05-06T09:38:23.860Z,1382.00
2023-05-06T09:39:23.874Z,1404.00
2023-05-06T09:40:23.865Z,1355.00
2023-05-06T09:41:23.879Z,1368.00
2023-05-06T09:42:23.923Z,1364.00
2023-05-06T09:43:23.897Z,1390.00
2023-05-06T09:44:23.968Z,1401.00
2023-05-06T09:45:23.946Z,1398.00
2023-05-06T09:46:24.062Z,1427.00
2023-05-06T09:47:24.083Z,1449.00
2023-05-06T09:48:24.043Z,1492.00
2023-05-06T09:49:24.083Z,1525.00
2023-05-06T09:50:24.084Z,1477.00
2023-05-06T09:51:24.101Z,1478.00
2023-05-06T09:52:24.125Z,1492.00
2023-05-06T09:53:24.130Z,1467.00
2023-05-06T09:54:24.145Z,1469.00
2023-05-06T09:55:24.182Z,1445.00
2023-05-06T09:56:24.190Z,1371.00
2023-05-06T09:57:24.192Z,1315.00
2023-05-06T09:58:24.242Z,1340.00
2023-05-06T09:59:24.224Z,1354.00
2023-05-06T10:00:24.281Z,1381.00
2023-05-06T10:02:24.307Z,1413.00
2023-05-06T10:03:24.303Z,1414.00
2023-05-06T10:04:25.608Z,1390.00
2023-05-06T10:05:24.212Z,1362.00
2023-05-06T10:06:24.122Z,1359.00
2023-05-06T10:07:24.112Z,1389.00
2023-05-06T10:08:24.088Z,1417.00
2023-05-06T10:09:24.066Z,1487.00
2023-05-06T10:10:25.402Z,1514.00
2023-05-06T10:11:24.053Z,1569.00
2023-05-06T10:12:24.033Z,1616.00
2023-05-06T10:13:24.067Z,1691.00
2023-05-06T10:14:23.960Z,1727.00
2023-05-06T10:15:23.952Z,1763.00
2023-05-06T10:16:24.059Z,1806.00
2023-05-06T10:17:24.003Z,1818.00
2023-05-06T10:18:23.866Z,1828.00
2023-05-06T10:19:23.869Z,1842.00
2023-05-06T10:20:23.876Z,1864.00
2023-05-06T10:21:23.822Z,1892.00
2023-05-06T10:22:23.820Z,1913.00
2023-05-06T10:23:23.767Z,1921.00
2023-05-06T10:24:23.869Z,1935.00
2023-05-06T10:25:23.782Z,1971.00
2023-05-06T10:26:23.740Z,1984.00
2023-05-06T10:27:23.737Z,2008.00
2023-05-06T10:28:30.371Z,2026.00
2023-05-06T10:29:24.692Z,2027.00
2023-05-06T10:30:23.640Z,2034.00
2023-05-06T10:31:23.801Z,2058.00
2023-05-06T10:32:23.659Z,2121.00
2023-05-06T10:33:23.566Z,2194.00
2023-05-06T10:34:23.514Z,2216.00
2023-05-06T10:35:23.497Z,2258.00
2023-05-06T10:36:23.488Z,2290.00
2023-05-06T10:37:23.505Z,2259.00
2023-05-06T10:38:23.408Z,2252.00
2023-05-06T10:39:23.402Z,2254.00
2023-05-06T10:40:23.368Z,2286.00
2023-05-06T10:41:23.356Z,2291.00
2023-05-06T10:42:23.334Z,2305.00
2023-05-06T10:43:23.299Z,2320.00
2023-05-06T10:44:23.259Z,2355.00
2023-05-06T10:45:23.248Z,2376.00
2023-05-06T10:46:23.207Z,2426.00
2023-05-06T10:47:23.194Z,2430.00
2023-05-06T10:48:23.272Z,2470.00
2023-05-06T10:49:23.162Z,2464.00
2023-05-06T10:50:23.179Z,2465.00
2023-05-06T10:51:23.191Z,2457.00
2023-05-06T10:52:23.201Z,2467.00
2023-05-06T10:53:23.251Z,2476.00
2023-05-06T10:54:23.309Z,2465.00
2023-05-06T10:55:23.360Z,2474.00
2023-05-06T10:56:23.334Z,2468.00
2023-05-06T10:57:23.399Z,2495.00
2023-05-06T10:58:23.410Z,2502.00
2023-05-06T10:59:23.456Z,2531.00
2023-05-06T11:00:23.500Z,2550.00
2023-05-06T11:01:23.514Z,2566.00
2023-05-06T11:02:23.631Z,2557.00
2023-05-06T11:03:23.849Z,2547.00
2023-05-06T11:04:23.733Z,2530.00
2023-05-06T11:05:23.631Z,2533.00
2023-05-06T11:06:23.660Z,2558.00
2023-05-06T11:07:23.681Z,2567.00
2023-05-06T11:08:23.739Z,2573.00
2023-05-06T11:09:23.760Z,2536.00
2023-05-06T11:10:23.805Z,2530.00
2023-05-06T11:11:23.846Z,2492.00
2023-05-06T11:12:23.876Z,2493.00
2023-05-06T11:13:24.058Z,2494.00
2023-05-06T11:14:23.932Z,2519.00
2023-05-06T11:15:23.971Z,2523.00
2023-05-06T11:16:23.997Z,2463.00
2023-05-06T11:17:24.051Z,2422.00
2023-05-06T11:18:24.056Z,2443.00
2023-05-06T11:19:24.057Z,2481.00
2023-05-06T11:20:24.150Z,2463.00
2023-05-06T11:21:24.107Z,2480.00
2023-05-06T11:22:24.157Z,2477.00
2023-05-06T11:23:24.217Z,2439.00
2023-05-06T11:24:24.246Z,2446.00
2023-05-06T11:25:24.262Z,2465.00
2023-05-06T11:26:24.303Z,2467.00
2023-05-06T11:27:24.360Z,2462.00
2023-05-06T11:28:24.333Z,2472.00
2023-05-06T11:29:24.368Z,2382.00
2023-05-06T11:30:24.390Z,2371.00
2023-05-06T11:31:24.456Z,2317.00
2023-05-06T11:32:24.497Z,2358.00
2023-05-06T11:33:24.464Z,2341.00
2023-05-06T11:34:24.558Z,2142.00
2023-05-06T11:35:24.556Z,1769.00
2023-05-06T11:36:24.608Z,1589.00
2023-05-06T11:37:24.658Z,1587.00
2023-05-06T11:38:24.679Z,1576.00
2023-05-06T11:39:24.706Z,1532.00
2023-05-06T11:40:24.758Z,1422.00
2023-05-06T11:41:24.772Z,1398.00
2023-05-06T11:42:24.834Z,1437.00
2023-05-06T11:43:24.835Z,1530.00
2023-05-06T11:44:24.905Z,1582.00
2023-05-06T11:45:24.932Z,1628.00
2023-05-06T11:46:24.985Z,1646.00
2023-05-06T11:47:25.051Z,1708.00
2023-05-06T11:48:25.036Z,1734.00
2023-05-06T11:49:25.067Z,1772.00
2023-05-06T11:50:25.068Z,1784.00
2023-05-06T11:51:25.107Z,1805.00
2023-05-06T11:52:25.217Z,1822.00
2023-05-06T11:53:25.176Z,1818.00
2023-05-06T11:54:25.214Z,1745.00
2023-05-06T11:55:25.249Z,1725.00
2023-05-06T11:56:25.301Z,1730.00
2023-05-06T11:57:25.299Z,1763.00
2023-05-06T11:58:25.352Z,1736.00
2023-05-06T11:59:25.339Z,1725.00
2023-05-06T12:00:25.361Z,1732.00
2023-05-06T12:01:25.399Z,1758.00
2023-05-06T12:02:25.493Z,1799.00
2023-05-06T12:03:25.604Z,1789.00
2023-05-06T12:04:25.578Z,1770.00
2023-05-06T12:05:25.502Z,1778.00
2023-05-06T12:06:25.544Z,1814.00